createdAt,value
2017-04-03T00:00:04.724Z,9.43
2017-04-03T00:00:45.371Z,9.41
2017-04-03T00:01:26.025Z,9.39
2017-04-03T00:02:06.691Z,9.41
2017-04-03T00:02:47.419Z,9.41
2017-04-03T00:03:27.975Z,9.41
2017-04-03T00:04:08.637Z,9.36
2017-04-03T00:04:49.276Z,9.39
2017-04-03T00:05:29.842Z,9.4
2017-04-03T00:06:10.495Z,9.43
2017-04-03T00:06:51.131Z,9.43
2017-04-03T00:07:31.705Z,9.4
2017-04-03T00:08:12.347Z,9.46
2017-04-03T00:08:53.039Z,9.4
2017-04-03T00:09:33.784Z,9.43
2017-04-03T00:10:14.310Z,9.36
2017-04-03T00:10:54.947Z,9.36
2017-04-03T00:11:35.654Z,9.37
2017-04-03T00:12:16.263Z,9.43
2017-04-03T00:12:56.975Z,9.31
2017-04-03T00:13:37.609Z,9.37
2017-04-03T00:14:18.259Z,9.41
2017-04-03T00:14:58.913Z,9.36
2017-04-03T00:15:39.587Z,9.41
2017-04-03T00:16:20.217Z,9.37
2017-04-03T00:17:01.898Z,9.41
2017-04-03T00:17:42.550Z,9.43
2017-04-03T00:18:23.211Z,9.44
2017-04-03T00:19:03.864Z,9.43
2017-04-03T00:19:44.518Z,9.41
2017-04-03T00:20:25.179Z,9.39
2017-04-03T00:21:05.823Z,9.41
2017-04-03T00:21:47.497Z,9.43
2017-04-03T00:22:28.195Z,9.43
2017-04-03T00:23:08.749Z,9.41
2017-04-03T00:23:49.414Z,9.39
2017-04-03T00:24:30.103Z,9.43
2017-04-03T00:25:10.809Z,9.4
2017-04-03T00:25:51.369Z,9.39
2017-04-03T00:26:32.044Z,9.37
2017-04-03T00:27:12.720Z,9.39
2017-04-03T00:27:53.430Z,9.29
2017-04-03T00:28:33.993Z,9.23
2017-04-03T00:29:14.625Z,9.26
2017-04-03T00:29:55.329Z,9.26
2017-04-03T00:30:36.334Z,9.29
2017-04-03T00:31:16.890Z,9.26
2017-04-03T00:31:58.609Z,9.34
2017-04-03T00:32:39.270Z,9.31
2017-04-03T00:33:19.972Z,9.44
2017-04-03T00:34:00.538Z,9.4
2017-04-03T00:34:41.195Z,9.44
2017-04-03T00:35:21.896Z,9.39
2017-04-03T00:36:02.581Z,9.43
2017-04-03T00:36:43.153Z,9.41
2017-04-03T00:37:23.818Z,9.4
2017-04-03T00:38:04.460Z,9.43
2017-04-03T00:38:45.143Z,9.46
2017-04-03T00:39:25.857Z,9.5
2017-04-03T00:40:06.521Z,9.48
2017-04-03T00:40:47.186Z,9.58
2017-04-03T00:41:27.946Z,9.55
2017-04-03T00:42:08.671Z,9.51
2017-04-03T00:42:49.251Z,9.58
2017-04-03T00:43:29.991Z,9.51
2017-04-03T00:44:10.620Z,9.58
2017-04-03T00:44:51.192Z,9.51
2017-04-03T00:45:31.846Z,9.47
2017-04-03T00:46:13.304Z,9.56
2017-04-03T00:46:53.868Z,9.59
2017-04-03T00:47:34.527Z,9.54
2017-04-03T00:48:15.184Z,9.55
2017-04-03T00:48:55.826Z,9.54
2017-04-03T00:49:36.499Z,9.51
2017-04-03T00:50:17.132Z,9.58
2017-04-03T00:50:57.784Z,9.55
2017-04-03T00:51:38.443Z,9.55
2017-04-03T00:52:19.140Z,9.5
2017-04-03T00:52:59.826Z,9.55
2017-04-03T00:53:40.386Z,9.54
2017-04-03T00:54:21.063Z,9.55
2017-04-03T00:55:01.754Z,9.66
2017-04-03T00:55:42.453Z,9.54
2017-04-03T00:56:23.007Z,9.54
2017-04-03T00:57:03.676Z,9.51
2017-04-03T00:57:44.398Z,9.54
2017-04-03T00:58:24.972Z,9.47
2017-04-03T00:59:05.619Z,9.48
2017-04-03T00:59:46.259Z,9.54
2017-04-03T01:00:26.823Z,9.43
2017-04-03T01:01:07.496Z,9.37
2017-04-03T01:01:48.216Z,9.44
2017-04-03T01:02:28.778Z,9.39
2017-04-03T01:03:09.448Z,9.44
2017-04-03T01:03:50.175Z,9.46
2017-04-03T01:04:30.730Z,9.41
2017-04-03T01:05:11.396Z,9.41
2017-04-03T01:05:52.042Z,9.43
2017-04-03T01:06:32.601Z,9.25
2017-04-03T01:07:13.266Z,9.32
2017-04-03T01:07:53.993Z,9.25
2017-04-03T01:08:34.566Z,9.25
2017-04-03T01:09:15.212Z,9.23
2017-04-03T01:09:55.868Z,9.22
2017-04-03T01:10:36.531Z,9.11
2017-04-03T01:11:17.276Z,9.14
2017-04-03T01:11:57.938Z,9.13
2017-04-03T01:12:38.674Z,9.1
2017-04-03T01:13:19.230Z,9.02
2017-04-03T01:14:00.000Z,9.08
2017-04-03T01:14:41.545Z,9.08
2017-04-03T01:15:22.119Z,9.13
2017-04-03T01:16:02.769Z,9.11
2017-04-03T01:16:43.514Z,9.11
2017-04-03T01:17:24.081Z,9.11
2017-04-03T01:18:04.834Z,9.04
2017-04-03T01:18:45.602Z,9.04
2017-04-03T01:19:26.353Z,8.97
2017-04-03T01:20:07.088Z,9.04
2017-04-03T01:20:47.740Z,9.1
2017-04-03T01:21:28.506Z,9.06
2017-04-03T01:22:09.196Z,9.06
2017-04-03T01:22:49.894Z,9.06
2017-04-03T01:23:30.468Z,9.11
2017-04-03T01:24:11.225Z,9.13
2017-04-03T01:24:51.915Z,9.03
2017-04-03T01:25:32.611Z,9.02
2017-04-03T01:26:13.159Z,8.97
2017-04-03T01:26:53.820Z,9.02
2017-04-03T01:27:34.528Z,8.95
2017-04-03T01:28:15.286Z,9
2017-04-03T01:28:56.067Z,9
2017-04-03T01:29:36.800Z,9.06
2017-04-03T01:30:17.547Z,9.08
2017-04-03T01:30:58.208Z,9.13
2017-04-03T01:31:38.992Z,9.1
2017-04-03T01:32:19.607Z,9
2017-04-03T01:33:00.255Z,8.94
2017-04-03T01:33:41.012Z,9
2017-04-03T01:34:21.666Z,9.02
2017-04-03T01:35:02.319Z,9.06
2017-04-03T01:35:43.075Z,9.03
2017-04-03T01:36:23.732Z,8.92
2017-04-03T01:37:04.492Z,9.02
2017-04-03T01:37:45.062Z,9.02
2017-04-03T01:38:25.753Z,8.97
2017-04-03T01:39:06.491Z,9.02
2017-04-03T01:39:47.067Z,9
2017-04-03T01:40:27.813Z,9.02
2017-04-03T01:41:08.546Z,9.02
2017-04-03T01:41:49.120Z,9.02
2017-04-03T01:42:29.760Z,9.02
2017-04-03T01:43:10.414Z,8.99
2017-04-03T01:43:51.077Z,9.03
2017-04-03T01:44:31.730Z,8.99
2017-04-03T01:45:12.516Z,9.06
2017-04-03T01:45:53.139Z,9.03
2017-04-03T01:46:33.906Z,9.04
2017-04-03T01:47:14.660Z,9.1
2017-04-03T01:47:55.387Z,9
2017-04-03T01:48:35.949Z,9.04
2017-04-03T01:49:16.588Z,8.91
2017-04-03T01:49:57.252Z,8.99
2017-04-03T01:50:37.803Z,8.91
2017-04-03T01:51:18.470Z,8.89
2017-04-03T01:51:59.198Z,8.89
2017-04-03T01:52:39.953Z,8.92
2017-04-03T01:53:20.715Z,8.85
2017-04-03T01:54:01.470Z,8.88
2017-04-03T01:54:42.224Z,8.87
2017-04-03T01:55:22.989Z,8.85
2017-04-03T01:56:03.631Z,8.91
2017-04-03T01:56:44.390Z,8.94
2017-04-03T01:57:24.953Z,8.91
2017-04-03T01:58:05.643Z,8.91
2017-04-03T01:58:46.297Z,9
2017-04-03T01:59:27.002Z,8.91
2017-04-03T02:00:07.578Z,8.89
2017-04-03T02:00:48.229Z,8.91
2017-04-03T02:01:28.918Z,8.88
2017-04-03T02:02:09.479Z,8.91
2017-04-03T02:02:50.182Z,8.88
2017-04-03T02:03:30.918Z,8.88
2017-04-03T02:04:11.488Z,8.91
2017-04-03T02:04:52.255Z,8.97
2017-04-03T02:05:32.978Z,8.97
2017-04-03T02:06:13.555Z,8.97
2017-04-03T02:06:54.373Z,9.03
2017-04-03T02:07:35.044Z,9.06
2017-04-03T02:08:15.692Z,9.11
2017-04-03T02:08:56.454Z,9.08
2017-04-03T02:09:37.208Z,9.11
2017-04-03T02:10:17.960Z,9.06
2017-04-03T02:10:58.615Z,9.16
2017-04-03T02:11:39.367Z,9.11
2017-04-03T02:12:19.934Z,9.08
2017-04-03T02:13:00.704Z,9.11
2017-04-03T02:13:41.394Z,9.08
2017-04-03T02:14:22.082Z,9.11
2017-04-03T02:15:02.653Z,9.03
2017-04-03T02:15:43.407Z,9.11
2017-04-03T02:16:24.101Z,9.06
2017-04-03T02:17:04.792Z,9.1
2017-04-03T02:17:45.447Z,9.11
2017-04-03T02:18:26.204Z,9.03
2017-04-03T02:19:06.965Z,9.08
2017-04-03T02:19:47.721Z,9.02
2017-04-03T02:20:28.475Z,9.03
2017-04-03T02:21:09.231Z,9
2017-04-03T02:21:49.982Z,8.92
2017-04-03T02:22:31.449Z,8.79
2017-04-03T02:23:12.131Z,8.73
2017-04-03T02:23:52.823Z,8.74
2017-04-03T02:24:33.520Z,8.81
2017-04-03T02:25:14.087Z,8.71
2017-04-03T02:25:54.831Z,8.78
2017-04-03T02:26:35.538Z,8.67
2017-04-03T02:27:16.113Z,8.71
2017-04-03T02:27:56.804Z,8.81
2017-04-03T02:28:37.542Z,8.66
2017-04-03T02:29:18.135Z,8.74
2017-04-03T02:29:59.902Z,8.79
2017-04-03T02:30:40.617Z,8.67
2017-04-03T02:31:21.190Z,8.71
2017-04-03T02:32:01.948Z,8.63
2017-04-03T02:32:42.688Z,8.67
2017-04-03T02:33:23.268Z,8.69
2017-04-03T02:34:03.998Z,8.69
2017-04-03T02:34:44.773Z,8.76
2017-04-03T02:35:25.525Z,8.73
2017-04-03T02:36:06.283Z,8.63
2017-04-03T02:36:47.029Z,8.67
2017-04-03T02:37:27.724Z,8.7
2017-04-03T02:38:08.458Z,8.73
2017-04-03T02:38:48.997Z,8.7
2017-04-03T02:39:29.801Z,8.76
2017-04-03T02:40:10.543Z,8.71
2017-04-03T02:40:53.779Z,8.69
2017-04-03T02:41:35.486Z,8.7
2017-04-03T02:42:16.090Z,8.85
2017-04-03T02:43:02.362Z,8.85
2017-04-03T02:43:44.026Z,8.85
2017-04-03T02:44:24.704Z,8.87
2017-04-03T02:45:07.283Z,8.85
2017-04-03T02:45:48.962Z,8.92
2017-04-03T02:46:29.604Z,8.85
2017-04-03T02:47:11.278Z,8.84
2017-04-03T02:47:51.872Z,8.85
2017-04-03T02:48:32.468Z,8.85
2017-04-03T02:49:13.052Z,8.88
2017-04-03T02:49:54.715Z,8.89
2017-04-03T02:50:35.305Z,8.76
2017-04-03T02:51:15.894Z,8.82
2017-04-03T02:51:56.490Z,8.78
2017-04-03T02:52:38.146Z,8.73
2017-04-03T02:53:20.740Z,8.76
2017-04-03T02:54:01.389Z,8.67
2017-04-03T02:54:43.070Z,8.71
2017-04-03T02:55:24.763Z,8.71
2017-04-03T02:56:05.400Z,8.74
2017-04-03T02:56:47.086Z,8.67
2017-04-03T02:57:27.735Z,8.64
2017-04-03T02:58:08.385Z,8.64
2017-04-03T02:58:50.997Z,8.69
2017-04-03T02:59:33.687Z,8.69
2017-04-03T03:00:14.338Z,8.69
2017-04-03T03:00:54.990Z,8.63
2017-04-03T03:01:46.294Z,8.67
2017-04-03T03:02:31.861Z,8.67
2017-04-03T03:03:12.556Z,8.67
2017-04-03T03:03:54.192Z,8.71
2017-04-03T03:04:34.837Z,8.73
2017-04-03T03:05:16.523Z,8.79
2017-04-03T03:05:57.175Z,8.71
2017-04-03T03:06:42.330Z,8.74
2017-04-03T03:07:22.990Z,8.74
2017-04-03T03:08:03.572Z,8.64
2017-04-03T03:08:45.188Z,8.74
2017-04-03T03:09:25.762Z,8.74
2017-04-03T03:10:06.546Z,8.67
2017-04-03T03:10:48.126Z,8.61
2017-04-03T03:11:30.768Z,8.66
2017-04-03T03:12:11.344Z,8.58
2017-04-03T03:12:53.019Z,8.46
2017-04-03T03:13:33.655Z,8.64
2017-04-03T03:14:14.224Z,8.51
2017-04-03T03:14:55.902Z,8.52
2017-04-03T03:15:36.529Z,8.56
2017-04-03T03:16:17.126Z,8.51
2017-04-03T03:16:57.750Z,8.51
2017-04-03T03:17:38.384Z,8.46
2017-04-03T03:18:18.976Z,8.48
2017-04-03T03:18:59.606Z,8.48
2017-04-03T03:19:40.258Z,8.44
2017-04-03T03:20:20.915Z,8.37
2017-04-03T03:21:02.600Z,8.34
2017-04-03T03:21:44.275Z,8.3
2017-04-03T03:22:26.873Z,8.31
2017-04-03T03:23:07.526Z,8.28
2017-04-03T03:23:48.179Z,8.34
2017-04-03T03:24:30.778Z,8.28
2017-04-03T03:25:12.455Z,8.23
2017-04-03T03:25:55.044Z,8.24
2017-04-03T03:26:35.709Z,8.24
2017-04-03T03:27:18.293Z,8.13
2017-04-03T03:27:59.032Z,8.16
2017-04-03T03:28:39.630Z,8.16
2017-04-03T03:29:20.258Z,8.12
2017-04-03T03:30:02.955Z,8.2
2017-04-03T03:30:43.531Z,8.18
2017-04-03T03:31:30.824Z,8.08
2017-04-03T03:32:11.449Z,8.13
2017-04-03T03:32:52.109Z,8.13
2017-04-03T03:33:38.591Z,8.08
2017-04-03T03:34:20.268Z,8.09
2017-04-03T03:35:00.925Z,8.1
2017-04-03T03:35:43.622Z,8.16
2017-04-03T03:36:25.302Z,8.1
2017-04-03T03:37:06.001Z,8.06
2017-04-03T03:37:46.556Z,8.12
2017-04-03T03:38:27.179Z,8.16
2017-04-03T03:39:07.769Z,8.18
2017-04-03T03:39:48.368Z,8.1
2017-04-03T03:40:28.971Z,8.24
2017-04-03T03:41:10.618Z,8.31
2017-04-03T03:41:53.237Z,8.3
2017-04-03T03:42:34.862Z,8.24
2017-04-03T03:43:15.516Z,8.28
2017-04-03T03:43:57.190Z,8.37
2017-04-03T03:44:37.842Z,8.38
2017-04-03T03:45:18.518Z,8.36
2017-04-03T03:46:00.172Z,8.36
2017-04-03T03:46:40.825Z,8.38
2017-04-03T03:47:21.477Z,8.37
2017-04-03T03:48:04.210Z,8.31
2017-04-03T03:48:44.831Z,8.33
2017-04-03T03:49:25.477Z,8.33
2017-04-03T03:50:08.083Z,8.37
2017-04-03T03:50:49.758Z,8.37
2017-04-03T03:51:32.461Z,8.46
2017-04-03T03:52:14.137Z,8.44
2017-04-03T03:52:54.732Z,8.42
2017-04-03T03:53:36.391Z,8.38
2017-04-03T03:54:17.052Z,8.44
2017-04-03T03:54:57.703Z,8.45
2017-04-03T03:55:44.911Z,8.41
2017-04-03T03:56:25.552Z,8.41
2017-04-03T03:57:08.153Z,8.49
2017-04-03T03:57:48.801Z,8.49
2017-04-03T03:58:29.462Z,8.48
2017-04-03T03:59:14.823Z,8.55
2017-04-03T03:59:55.469Z,8.49
2017-04-03T04:00:36.120Z,8.56
2017-04-03T04:01:18.729Z,8.53
2017-04-03T04:01:59.376Z,8.52
2017-04-03T04:02:40.037Z,8.45
2017-04-03T04:03:20.656Z,8.49
2017-04-03T04:04:01.234Z,8.38
2017-04-03T04:04:41.898Z,8.48
2017-04-03T04:05:23.539Z,8.41
2017-04-03T04:06:04.110Z,8.44
2017-04-03T04:06:51.422Z,8.38
2017-04-03T04:07:32.052Z,8.37
2017-04-03T04:08:12.799Z,8.37
2017-04-03T04:08:58.169Z,8.37
2017-04-03T04:09:38.743Z,8.42
2017-04-03T04:10:19.397Z,8.44
2017-04-03T04:11:00.051Z,8.44
2017-04-03T04:11:40.693Z,8.41
2017-04-03T04:12:22.397Z,8.38
2017-04-03T04:13:03.032Z,8.36
2017-04-03T04:13:44.712Z,8.55
2017-04-03T04:14:25.367Z,8.53
2017-04-03T04:15:07.040Z,8.52
2017-04-03T04:15:48.718Z,8.48
2017-04-03T04:16:29.364Z,8.55
2017-04-03T04:17:10.065Z,8.56
2017-04-03T04:17:50.673Z,8.53
2017-04-03T04:18:31.325Z,8.51
2017-04-03T04:19:11.990Z,8.53
2017-04-03T04:19:52.633Z,8.49
2017-04-03T04:20:33.289Z,8.53
2017-04-03T04:21:14.963Z,8.48
2017-04-03T04:21:56.641Z,8.53
2017-04-03T04:22:38.239Z,8.56
2017-04-03T04:23:18.807Z,8.67
2017-04-03T04:23:59.438Z,8.6
2017-04-03T04:24:46.090Z,8.49
2017-04-03T04:25:26.684Z,8.66
2017-04-03T04:26:07.315Z,8.7
2017-04-03T04:26:53.575Z,8.64
2017-04-03T04:27:34.161Z,8.71
2017-04-03T04:28:15.825Z,8.66
2017-04-03T04:28:56.453Z,8.58
2017-04-03T04:29:37.031Z,8.63
2017-04-03T04:30:18.706Z,8.58
2017-04-03T04:31:00.366Z,8.51
2017-04-03T04:31:40.959Z,8.52
2017-04-03T04:32:21.617Z,8.56
2017-04-03T04:33:03.245Z,8.51
2017-04-03T04:33:43.895Z,8.45
2017-04-03T04:34:24.555Z,8.41
2017-04-03T04:35:05.204Z,8.46
2017-04-03T04:35:45.857Z,8.44
2017-04-03T04:36:27.530Z,8.44
2017-04-03T04:37:09.209Z,8.36
2017-04-03T04:37:49.809Z,8.31
2017-04-03T04:38:30.500Z,8.38
2017-04-03T04:39:11.168Z,8.23
2017-04-03T04:39:51.773Z,8.3
2017-04-03T04:40:32.394Z,8.33
2017-04-03T04:41:18.559Z,8.24
2017-04-03T04:41:59.132Z,8.26
2017-04-03T04:42:40.808Z,8.31
2017-04-03T04:43:22.521Z,8.36
2017-04-03T04:44:05.164Z,8.28
2017-04-03T04:44:45.756Z,8.28
2017-04-03T04:45:27.409Z,8.33
2017-04-03T04:46:09.126Z,8.23
2017-04-03T04:46:50.740Z,8.24
2017-04-03T04:47:31.322Z,8.19
2017-04-03T04:48:11.972Z,8.26
2017-04-03T04:48:57.254Z,8.24
2017-04-03T04:49:37.856Z,8.28
2017-04-03T04:50:18.432Z,8.26
2017-04-03T04:50:59.118Z,8.3
2017-04-03T04:51:40.802Z,8.37
2017-04-03T04:52:21.390Z,8.37
2017-04-03T04:53:01.959Z,8.37
2017-04-03T04:53:42.613Z,8.37
2017-04-03T04:54:23.238Z,8.31
2017-04-03T04:55:03.843Z,8.34
2017-04-03T04:55:45.496Z,8.28
2017-04-03T04:56:26.130Z,8.27
2017-04-03T04:57:06.696Z,8.28
2017-04-03T04:57:47.350Z,8.3
2017-04-03T04:58:27.981Z,8.27
2017-04-03T04:59:08.553Z,8.3
2017-04-03T04:59:49.191Z,8.33
2017-04-03T05:00:30.866Z,8.3
2017-04-03T05:01:11.465Z,8.31
2017-04-03T05:01:54.133Z,8.3
2017-04-03T05:02:34.761Z,8.3
2017-04-03T05:03:15.419Z,8.28
2017-04-03T05:03:56.071Z,8.31
2017-04-03T05:04:36.721Z,8.13
2017-04-03T05:05:17.374Z,8.12
2017-04-03T05:06:02.530Z,8.16
2017-04-03T05:06:50.046Z,8.15
2017-04-03T05:07:30.604Z,8.13
2017-04-03T05:08:11.277Z,8.1
2017-04-03T05:08:51.911Z,8.13
2017-04-03T05:09:32.600Z,8.16
2017-04-03T05:10:13.217Z,8.15
2017-04-03T05:10:53.923Z,8.13
2017-04-03T05:11:34.525Z,8.15
2017-04-03T05:12:15.174Z,8.18
2017-04-03T05:12:55.766Z,8.19
2017-04-03T05:13:36.366Z,8.16
2017-04-03T05:14:16.931Z,8.12
2017-04-03T05:14:57.584Z,8.08
2017-04-03T05:15:38.182Z,8.09
2017-04-03T05:16:18.774Z,8.08
2017-04-03T05:16:59.363Z,8.06
2017-04-03T05:17:40.007Z,8.06
2017-04-03T05:18:20.633Z,8.08
2017-04-03T05:19:01.215Z,8.1
2017-04-03T05:19:41.848Z,8.03
2017-04-03T05:20:23.513Z,8.06
2017-04-03T05:21:04.101Z,8.06
2017-04-03T05:21:45.773Z,8.06
2017-04-03T05:22:26.493Z,8.09
2017-04-03T05:23:07.146Z,8.18
2017-04-03T05:23:47.808Z,8.1
2017-04-03T05:24:28.453Z,8.1
2017-04-03T05:25:09.105Z,8.16
2017-04-03T05:25:49.757Z,8.18
2017-04-03T05:26:30.401Z,8.15
2017-04-03T05:27:11.064Z,8.13
2017-04-03T05:27:51.718Z,8.15
2017-04-03T05:28:32.369Z,8.16
2017-04-03T05:29:13.023Z,8.15
2017-04-03T05:29:58.587Z,8.16
2017-04-03T05:30:39.251Z,8.1
2017-04-03T05:31:30.549Z,8.15
2017-04-03T05:32:23.073Z,8.19
2017-04-03T05:33:03.666Z,8.1
2017-04-03T05:33:44.307Z,8.05
2017-04-03T05:34:40.661Z,8.12
2017-04-03T05:35:22.280Z,8.13
2017-04-03T05:36:02.860Z,8.13
2017-04-03T05:36:48.420Z,8.15
2017-04-03T05:42:17.959Z,8.13
2017-04-03T05:42:58.542Z,8.15
2017-04-03T05:43:39.143Z,8.15
2017-04-03T05:44:19.773Z,8.13
2017-04-03T05:45:00.389Z,8.16
2017-04-03T05:45:41.052Z,8.15
2017-04-03T05:46:26.443Z,8.16
2017-04-03T05:47:07.004Z,8.23
2017-04-03T05:47:54.312Z,8.16
2017-04-03T05:48:39.801Z,8.16
2017-04-03T05:49:20.452Z,8.18
2017-04-03T05:50:01.097Z,8.26
2017-04-03T05:50:41.798Z,8.16
2017-04-03T05:51:22.402Z,8.18
2017-04-03T05:52:04.078Z,8.24
2017-04-03T05:52:44.734Z,8.16
2017-04-03T05:53:27.330Z,8.16
2017-04-03T05:54:09.928Z,8.13
2017-04-03T05:54:50.585Z,8.15
2017-04-03T05:55:31.248Z,8.09
2017-04-03T05:56:17.827Z,8.15
2017-04-03T05:56:58.474Z,8.15
2017-04-03T05:57:39.136Z,8.16
2017-04-03T05:58:19.811Z,8.12
2017-04-03T05:59:12.350Z,8.08
2017-04-03T05:59:52.997Z,8.1
2017-04-03T06:00:33.620Z,8.09
2017-04-03T06:01:15.314Z,8.09
2017-04-03T06:01:55.946Z,8.1
2017-04-03T06:02:36.604Z,8.12
2017-04-03T06:03:17.274Z,8.09
2017-04-03T06:03:57.912Z,8.1
2017-04-03T06:04:39.596Z,8.15
2017-04-03T06:05:22.311Z,8.16
2017-04-03T06:06:07.718Z,8.16
2017-04-03T06:06:48.311Z,8.15
2017-04-03T06:07:30.906Z,8.16
2017-04-03T06:08:11.502Z,8.16
2017-04-03T06:08:52.161Z,8.18
2017-04-03T06:09:33.870Z,8.13
2017-04-03T06:10:15.513Z,8.13
2017-04-03T06:10:56.164Z,8.16
2017-04-03T06:11:37.764Z,8.16
2017-04-03T06:12:19.328Z,8.2
2017-04-03T06:13:04.584Z,8.13
2017-04-03T06:13:45.201Z,8.18
2017-04-03T06:14:25.851Z,8.15
2017-04-03T06:15:06.484Z,8.23
2017-04-03T06:17:07.036Z,8.23
2017-04-03T06:17:47.604Z,8.15
2017-04-03T06:18:28.236Z,8.15
2017-04-03T06:19:08.889Z,8.16
2017-04-03T06:19:54.473Z,8.12
2017-04-03T06:20:35.109Z,8.13
2017-04-03T06:21:15.768Z,8.18
2017-04-03T06:21:56.405Z,8.12
2017-04-03T06:22:38.087Z,8.13
2017-04-03T06:23:19.687Z,8.13
2017-04-03T06:24:00.292Z,8.16
2017-04-03T06:24:40.942Z,8.18
2017-04-03T06:25:21.665Z,8.12
2017-04-03T06:26:02.306Z,8.15
2017-04-03T06:26:43.932Z,8.24
2017-04-03T06:27:24.509Z,8.23
2017-04-03T06:28:05.183Z,8.19
2017-04-03T06:28:45.836Z,8.28
2017-04-03T06:29:26.428Z,8.24
2017-04-03T06:30:07.013Z,8.3
2017-04-03T06:30:47.714Z,8.33
2017-04-03T06:31:33.266Z,8.28
2017-04-03T06:32:13.968Z,8.26
2017-04-03T06:32:54.543Z,8.3
2017-04-03T06:33:36.204Z,8.26
2017-04-03T06:34:17.825Z,8.23
2017-04-03T06:34:58.526Z,8.19
2017-04-03T06:35:39.103Z,8.28
2017-04-03T06:36:19.736Z,8.26
2017-04-03T06:37:00.340Z,8.24
2017-04-03T06:37:40.933Z,8.24
2017-04-03T06:38:21.491Z,8.19
2017-04-03T06:39:03.153Z,8.31
2017-04-03T06:39:43.755Z,8.26
2017-04-03T06:40:25.384Z,8.27
2017-04-03T06:41:05.997Z,8.3
2017-04-03T06:41:46.559Z,8.42
2017-04-03T06:42:27.929Z,8.41
2017-04-03T06:43:09.734Z,8.53
2017-04-03T06:43:50.934Z,8.52
2017-04-03T06:44:31.582Z,8.51
2017-04-03T06:45:12.236Z,8.45
2017-04-03T06:45:53.651Z,8.51
2017-04-03T06:46:34.262Z,8.52
2017-04-03T06:47:14.923Z,8.51
2017-04-03T06:47:55.500Z,8.51
2017-04-03T06:48:36.096Z,8.48
2017-04-03T06:49:18.687Z,8.53
2017-04-03T06:49:59.247Z,8.55
2017-04-03T06:50:39.835Z,8.51
2017-04-03T06:51:20.419Z,8.45
2017-04-03T06:52:01.993Z,8.51
2017-04-03T06:52:42.554Z,8.58
2017-04-03T06:53:23.113Z,8.63
2017-04-03T06:54:05.690Z,8.67
2017-04-03T06:54:46.263Z,8.66
2017-04-03T06:55:27.836Z,8.69
2017-04-03T06:56:08.517Z,8.74
2017-04-03T06:56:51.601Z,8.87
2017-04-03T06:57:32.180Z,8.91
2017-04-03T06:58:12.754Z,8.95
2017-04-03T06:58:53.361Z,8.88
2017-04-03T06:59:33.967Z,8.97
2017-04-03T07:00:14.557Z,8.95
2017-04-03T07:00:55.134Z,9.03
2017-04-03T07:01:35.789Z,9.03
2017-04-03T07:02:22.924Z,8.94
2017-04-03T07:03:08.418Z,8.94
2017-04-03T07:03:49.016Z,8.88
2017-04-03T07:04:29.629Z,8.82
2017-04-03T07:05:10.238Z,8.85
2017-04-03T07:05:55.401Z,8.85
2017-04-03T07:06:35.969Z,8.81
2017-04-03T07:07:18.553Z,8.85
2017-04-03T07:07:59.120Z,8.85
2017-04-03T07:08:40.685Z,8.99
2017-04-03T07:09:21.393Z,8.91
2017-04-03T07:10:02.988Z,8.97
2017-04-03T07:10:44.553Z,9.13
2017-04-03T07:11:25.169Z,9.08
2017-04-03T07:12:05.726Z,9.03
2017-04-03T07:12:46.283Z,9.13
2017-04-03T07:13:32.707Z,8.97
2017-04-03T07:14:14.280Z,8.97
2017-04-03T07:14:54.848Z,8.94
2017-04-03T07:15:35.420Z,8.82
2017-04-03T07:16:15.997Z,8.95
2017-04-03T07:16:56.573Z,8.91
2017-04-03T07:17:37.132Z,8.92
2017-04-03T07:18:17.697Z,8.92
2017-04-03T07:19:00.266Z,8.91
2017-04-03T07:19:40.838Z,8.88
2017-04-03T07:20:21.408Z,8.94
2017-04-03T07:21:03.564Z,8.87
2017-04-03T07:21:44.139Z,8.88
2017-04-03T07:22:24.706Z,8.87
2017-04-03T07:23:05.290Z,8.87
2017-04-03T07:23:45.891Z,8.92
2017-04-03T07:24:26.472Z,9.04
2017-04-03T07:25:07.035Z,9.03
2017-04-03T07:25:47.629Z,9.04
2017-04-03T07:26:28.200Z,8.97
2017-04-03T07:27:08.771Z,9
2017-04-03T07:27:49.345Z,8.99
2017-04-03T07:28:29.915Z,8.99
2017-04-03T07:29:10.479Z,8.97
2017-04-03T07:29:51.041Z,8.97
2017-04-03T07:30:31.616Z,8.97
2017-04-03T07:31:12.289Z,9
2017-04-03T07:31:52.880Z,9.02
2017-04-03T07:32:33.416Z,8.99
2017-04-03T07:33:14.983Z,9
2017-04-03T07:33:55.560Z,9.03
2017-04-03T07:34:38.132Z,8.99
2017-04-03T07:35:20.729Z,9.08
2017-04-03T07:36:01.296Z,9.06
2017-04-03T07:36:41.866Z,9.14
2017-04-03T07:37:22.453Z,9.23
2017-04-03T07:38:03.024Z,9.28
2017-04-03T07:38:44.595Z,9.23
2017-04-03T07:39:25.173Z,9.28
2017-04-03T07:40:05.844Z,9.25
2017-04-03T07:40:46.422Z,9.25
2017-04-03T07:41:26.994Z,9.43
2017-04-03T07:42:07.554Z,9.37
2017-04-03T07:42:48.129Z,9.43
2017-04-03T07:43:28.687Z,9.44
2017-04-03T07:44:10.160Z,9.46
2017-04-03T07:44:50.791Z,9.48
2017-04-03T07:45:31.378Z,9.54
2017-04-03T07:46:12.015Z,9.51
2017-04-03T07:46:52.648Z,9.54
2017-04-03T07:47:33.213Z,9.47
2017-04-03T07:48:13.879Z,9.55
2017-04-03T07:48:54.530Z,9.59
2017-04-03T07:49:40.000Z,9.65
2017-04-03T07:50:21.752Z,9.5
2017-04-03T07:51:02.316Z,9.54
2017-04-03T07:51:42.982Z,9.54
2017-04-03T07:52:23.630Z,9.54
2017-04-03T07:53:06.224Z,9.41
2017-04-03T07:53:46.818Z,9.39
2017-04-03T07:54:28.561Z,9.39
2017-04-03T07:55:11.197Z,9.29
2017-04-03T07:55:51.796Z,9.29
2017-04-03T07:56:32.347Z,9.43
2017-04-03T07:57:13.014Z,9.23
2017-04-03T07:57:53.698Z,9.36
2017-04-03T07:58:34.354Z,9.37
2017-04-03T07:59:16.047Z,9.37
2017-04-03T07:59:56.692Z,9.39
2017-04-03T08:00:37.345Z,9.26
2017-04-03T08:01:17.993Z,9.26
2017-04-03T08:01:58.644Z,9.34
2017-04-03T08:02:39.922Z,9.23
2017-04-03T08:03:20.500Z,9.36
2017-04-03T08:04:01.192Z,9.32
2017-04-03T08:04:41.811Z,9.26
2017-04-03T08:05:22.375Z,9.26
2017-04-03T08:06:07.945Z,9.25
2017-04-03T08:06:48.586Z,9.41
2017-04-03T08:07:29.201Z,9.44
2017-04-03T08:08:14.507Z,9.44
2017-04-03T08:08:55.101Z,9.43
2017-04-03T08:09:35.729Z,9.41
2017-04-03T08:10:16.372Z,9.48
2017-04-03T08:10:57.015Z,9.51
2017-04-03T08:11:37.678Z,9.54
2017-04-03T08:12:19.366Z,9.58
2017-04-03T08:13:00.046Z,9.54
2017-04-03T08:13:40.667Z,9.56
2017-04-03T08:14:21.321Z,9.58
2017-04-03T08:15:01.968Z,9.5
2017-04-03T08:15:42.607Z,9.59
2017-04-03T08:16:23.288Z,9.64
2017-04-03T08:17:03.943Z,9.61
2017-04-03T08:17:44.590Z,9.74
2017-04-03T08:18:26.281Z,9.84
2017-04-03T08:19:08.889Z,9.86
2017-04-03T08:19:49.456Z,9.79
2017-04-03T08:20:30.084Z,9.87
2017-04-03T08:21:11.751Z,9.83
2017-04-03T08:21:52.433Z,9.87
2017-04-03T08:22:32.993Z,9.84
2017-04-03T08:23:13.722Z,9.89
2017-04-03T08:23:55.370Z,9.89
2017-04-03T08:24:36.044Z,9.92
2017-04-03T08:25:16.717Z,9.83
2017-04-03T08:25:57.326Z,9.89
2017-04-03T08:26:37.981Z,9.86
2017-04-03T08:27:18.620Z,9.92
2017-04-03T08:27:59.162Z,9.89
2017-04-03T08:28:39.757Z,9.97
2017-04-03T08:29:20.385Z,9.94
2017-04-03T08:30:01.036Z,9.97
2017-04-03T08:30:41.698Z,9.98
2017-04-03T08:31:23.272Z,9.99
2017-04-03T08:32:05.910Z,10.01
2017-04-03T08:32:46.506Z,10.02
2017-04-03T08:33:27.166Z,9.97
2017-04-03T08:34:07.853Z,9.99
2017-04-03T08:34:48.467Z,10.04
2017-04-03T08:35:30.187Z,9.89
2017-04-03T08:36:11.929Z,9.98
2017-04-03T08:36:52.569Z,10.05
2017-04-03T08:37:34.249Z,9.99
2017-04-03T08:38:14.903Z,10.16
2017-04-03T08:38:55.480Z,10.1
2017-04-03T08:39:36.059Z,10.07
2017-04-03T08:40:16.665Z,9.99
2017-04-03T08:40:57.324Z,9.89
2017-04-03T08:41:38.000Z,9.79
2017-04-03T08:42:18.674Z,9.77
2017-04-03T08:42:59.378Z,9.68
2017-04-03T08:43:46.686Z,9.65
2017-04-03T08:44:27.344Z,9.55
2017-04-03T08:45:07.948Z,9.58
2017-04-03T08:45:48.560Z,9.61
2017-04-03T08:46:29.124Z,9.72
2017-04-03T08:47:09.720Z,9.72
2017-04-03T08:47:51.290Z,9.69
2017-04-03T08:48:31.867Z,9.69
2017-04-03T08:49:12.468Z,9.76
2017-04-03T08:49:53.064Z,9.82
2017-04-03T08:50:33.631Z,9.87
2017-04-03T08:51:14.234Z,9.91
2017-04-03T08:51:54.899Z,9.94
2017-04-03T08:52:35.654Z,10.01
2017-04-03T08:53:16.346Z,10.09
2017-04-03T08:53:57.014Z,10.09
2017-04-03T08:54:37.710Z,10.17
2017-04-03T08:55:20.290Z,10.3
2017-04-03T08:56:00.937Z,10.2
2017-04-03T08:56:47.129Z,10.34
2017-04-03T08:57:27.736Z,10.23
2017-04-03T08:58:08.315Z,10.38
2017-04-03T08:58:53.458Z,10.44
2017-04-03T08:59:34.039Z,10.34
2017-04-03T09:00:14.620Z,10.25
2017-04-03T09:00:55.197Z,10.19
2017-04-03T09:01:35.780Z,10.31
2017-04-03T09:02:16.325Z,10.38
2017-04-03T09:02:56.883Z,10.37
2017-04-03T09:03:38.451Z,10.51
2017-04-03T09:04:19.034Z,10.59
2017-04-03T09:04:59.620Z,10.59
2017-04-03T09:05:40.194Z,10.57
2017-04-03T09:06:20.783Z,10.57
2017-04-03T09:07:01.340Z,10.63
2017-04-03T09:07:46.578Z,10.63
2017-04-03T09:08:28.237Z,10.75
2017-04-03T09:09:13.744Z,10.53
2017-04-03T09:09:54.344Z,10.59
2017-04-03T09:10:40.875Z,10.51
2017-04-03T09:11:22.344Z,10.59
2017-04-03T09:12:02.952Z,10.41
2017-04-03T09:12:49.238Z,10.46
2017-04-03T09:13:30.829Z,10.48
2017-04-03T09:14:12.473Z,10.46
2017-04-03T09:14:53.040Z,10.41